createdAt,value
2019-05-19T00:02:00.484Z,81.03
2019-05-19T00:04:32.719Z,80.62
2019-05-19T00:07:02.215Z,80.60
2019-05-19T00:09:30.671Z,80.60
2019-05-19T00:11:59.075Z,80.86
2019-05-19T00:14:27.515Z,80.88
2019-05-19T00:16:55.944Z,81.46
2019-05-19T00:19:27.056Z,81.52
2019-05-19T00:21:55.441Z,81.36
2019-05-19T00:24:24.225Z,81.78
2019-05-19T00:26:52.685Z,81.81
2019-05-19T00:29:21.092Z,81.64
2019-05-19T00:31:52.263Z,81.68
2019-05-19T00:34:20.922Z,81.55
2019-05-19T00:36:49.345Z,81.71
2019-05-19T00:39:18.206Z,81.39
2019-05-19T00:41:49.367Z,81.37
2019-05-19T00:44:18.907Z,81.55
2019-05-19T00:46:47.433Z,81.82
2019-05-19T00:49:17.927Z,81.90
2019-05-19T00:51:50.602Z,81.56
2019-05-19T00:54:19.792Z,81.17
2019-05-19T00:56:48.840Z,81.00
2019-05-19T00:59:18.411Z,80.99
2019-05-19T01:01:46.829Z,81.45
2019-05-19T01:04:17.837Z,81.69
2019-05-19T01:06:47.473Z,81.19
2019-05-19T01:09:15.915Z,80.86
2019-05-19T01:11:44.345Z,80.69
2019-05-19T01:14:17.477Z,80.82
2019-05-19T01:16:45.893Z,80.98
2019-05-19T01:19:14.338Z,80.73
2019-05-19T01:21:44.512Z,81.30
2019-05-19T01:24:13.097Z,81.00
2019-05-19T01:26:41.511Z,80.86
2019-05-19T01:29:11.052Z,80.96
2019-05-19T01:31:42.042Z,81.38
2019-05-19T01:34:10.487Z,81.31
2019-05-19T01:36:41.469Z,81.01
2019-05-19T01:39:09.890Z,81.63
2019-05-19T01:41:42.046Z,81.96
2019-05-19T01:44:11.567Z,81.83
2019-05-19T01:46:42.554Z,81.97
2019-05-19T01:49:10.995Z,82.15
2019-05-19T01:51:40.545Z,81.84
2019-05-19T01:54:09.011Z,82.12
2019-05-19T01:56:37.410Z,81.55
2019-05-19T01:59:05.832Z,82.12
2019-05-19T02:01:34.246Z,81.53
2019-05-19T02:04:02.669Z,81.25
2019-05-19T02:06:31.117Z,81.28
2019-05-19T02:08:59.538Z,80.96
2019-05-19T02:11:28.020Z,81.52
2019-05-19T02:13:56.438Z,81.26
2019-05-19T02:16:28.677Z,81.26
2019-05-19T02:18:59.241Z,81.23
2019-05-19T02:21:30.395Z,81.50
2019-05-19T02:23:59.702Z,81.23
2019-05-19T02:26:28.322Z,81.00
2019-05-19T02:28:56.735Z,81.44
2019-05-19T02:31:26.206Z,81.41
2019-05-19T02:33:54.744Z,81.41
2019-05-19T02:36:26.928Z,81.39
2019-05-19T02:38:55.365Z,81.43
2019-05-19T02:41:27.700Z,81.63
2019-05-19T02:43:57.619Z,81.33
2019-05-19T02:46:27.510Z,81.80
2019-05-19T02:48:56.851Z,81.72
2019-05-19T02:51:27.084Z,81.72
2019-05-19T02:53:56.509Z,81.87
2019-05-19T02:56:27.892Z,81.94
2019-05-19T02:58:59.909Z,81.78
2019-05-19T03:01:28.890Z,81.96
2019-05-19T03:03:57.305Z,81.91
2019-05-19T03:06:25.745Z,82.22
2019-05-19T03:08:54.171Z,81.96
2019-05-19T03:11:22.603Z,81.96
2019-05-19T03:13:51.014Z,81.66
2019-05-19T03:16:19.444Z,81.50
2019-05-19T03:18:47.854Z,81.70
2019-05-19T03:21:16.291Z,81.76
2019-05-19T03:23:44.698Z,81.80
2019-05-19T03:26:13.132Z,81.69
2019-05-19T03:28:41.585Z,81.60
2019-05-19T03:31:12.666Z,81.20
2019-05-19T03:33:43.786Z,81.74
2019-05-19T03:36:13.154Z,81.39
2019-05-19T03:38:41.585Z,81.20
2019-05-19T03:41:10.029Z,81.56
2019-05-19T03:43:38.447Z,81.39
2019-05-19T03:46:06.863Z,81.92
2019-05-19T03:48:35.286Z,82.07
2019-05-19T03:51:03.818Z,82.46
2019-05-19T03:53:32.215Z,82.33
2019-05-19T03:56:01.672Z,81.97
2019-05-19T03:58:30.083Z,81.95
2019-05-19T04:00:58.501Z,81.64
2019-05-19T04:03:26.954Z,81.62
2019-05-19T04:05:57.870Z,81.36
2019-05-19T04:08:26.325Z,81.59
2019-05-19T04:10:54.748Z,81.89
2019-05-19T04:13:23.169Z,82.05
2019-05-19T04:15:51.681Z,82.87
2019-05-19T04:18:20.098Z,82.50
2019-05-19T04:20:48.738Z,82.22
2019-05-19T04:23:17.094Z,81.80
2019-05-19T04:25:47.954Z,81.41
2019-05-19T04:28:16.417Z,81.06
2019-05-19T04:30:44.835Z,81.37
2019-05-19T04:33:13.248Z,81.49
2019-05-19T04:35:41.694Z,81.50
2019-05-19T04:38:10.099Z,81.04
2019-05-19T04:40:41.151Z,80.86
2019-05-19T04:43:14.547Z,81.06
2019-05-19T04:45:42.955Z,81.46
2019-05-19T04:48:11.363Z,81.66
2019-05-19T04:50:39.790Z,81.13
2019-05-19T04:53:08.208Z,81.14
2019-05-19T04:55:36.713Z,81.07
2019-05-19T04:58:07.479Z,81.35
2019-05-19T05:00:35.939Z,81.60
2019-05-19T05:03:04.350Z,81.30
2019-05-19T05:05:33.685Z,80.98
2019-05-19T05:08:02.275Z,81.08
2019-05-19T05:10:30.721Z,80.71
2019-05-19T05:12:59.137Z,80.46
2019-05-19T05:15:28.998Z,81.46
2019-05-19T05:17:57.377Z,81.03
2019-05-19T05:20:25.804Z,80.89
2019-05-19T05:22:55.252Z,80.79
2019-05-19T05:25:23.698Z,80.57
2019-05-19T05:27:54.629Z,80.23
2019-05-19T05:30:23.054Z,80.13
2019-05-19T05:32:52.454Z,80.01
2019-05-19T05:35:21.480Z,79.72
2019-05-19T05:37:49.925Z,79.65
2019-05-19T05:40:20.856Z,80.13
2019-05-19T05:42:49.713Z,79.44
2019-05-19T05:45:18.232Z,79.36
2019-05-19T05:47:46.630Z,79.39
2019-05-19T05:50:15.329Z,79.71
2019-05-19T05:52:43.740Z,79.49
2019-05-19T05:55:12.336Z,79.29
2019-05-19T05:57:40.744Z,78.98
2019-05-19T06:00:09.853Z,78.75
2019-05-19T06:02:38.280Z,79.42
2019-05-19T06:05:08.299Z,79.17
2019-05-19T06:07:38.767Z,78.45
2019-05-19T06:10:09.410Z,78.17
2019-05-19T06:12:40.197Z,77.89
2019-05-19T06:15:09.093Z,78.08
2019-05-19T06:17:37.505Z,78.10
2019-05-19T06:20:07.979Z,78.23
2019-05-19T06:22:54.471Z,78.18
2019-05-19T06:25:09.484Z,78.28
2019-05-19T06:27:37.908Z,78.16
2019-05-19T06:30:08.678Z,77.87
2019-05-19T06:32:38.405Z,77.87
2019-05-19T06:35:07.851Z,77.82
2019-05-19T06:37:36.309Z,77.81
2019-05-19T06:40:06.652Z,77.44
2019-05-19T06:42:35.093Z,78.22
2019-05-19T06:45:03.586Z,78.57
2019-05-19T06:47:32.031Z,77.74
2019-05-19T06:50:00.447Z,78.18
2019-05-19T06:52:28.884Z,77.85
2019-05-19T06:54:59.823Z,77.54
2019-05-19T06:57:28.232Z,77.85
2019-05-19T06:59:56.643Z,77.50
2019-05-19T07:02:25.094Z,77.33
2019-05-19T07:04:53.565Z,77.77
2019-05-19T07:07:21.979Z,78.00
2019-05-19T07:09:58.383Z,77.84
2019-05-19T07:12:20.581Z,78.25
2019-05-19T07:14:49.769Z,77.41
2019-05-19T07:17:20.657Z,76.24
2019-05-19T07:19:49.089Z,77.10
2019-05-19T07:22:17.549Z,76.65
2019-05-19T07:24:45.997Z,75.98
2019-05-19T07:27:14.458Z,75.47
2019-05-19T07:29:42.920Z,75.53
2019-05-19T07:32:11.309Z,75.94
2019-05-19T07:34:39.723Z,76.20
2019-05-19T07:37:10.907Z,75.48
2019-05-19T07:39:39.356Z,75.12
2019-05-19T07:42:07.776Z,75.49
2019-05-19T07:44:36.213Z,75.08
2019-05-19T07:47:04.614Z,74.94
2019-05-19T07:49:36.656Z,74.04
2019-05-19T07:52:04.474Z,73.21
2019-05-19T07:54:32.891Z,72.98
2019-05-19T07:57:01.326Z,73.53
2019-05-19T07:59:30.830Z,73.41
2019-05-19T08:01:59.372Z,73.91
2019-05-19T08:04:28.906Z,74.13
2019-05-19T08:06:57.391Z,73.60
2019-05-19T08:09:25.837Z,72.94
2019-05-19T08:11:54.350Z,73.03
2019-05-19T08:14:26.286Z,74.15
2019-05-19T08:16:54.823Z,72.96
2019-05-19T08:19:23.307Z,72.24
2019-05-19T08:21:51.715Z,72.86
2019-05-19T08:24:20.162Z,71.87
2019-05-19T08:26:48.604Z,72.93
2019-05-19T08:29:17.010Z,71.55
2019-05-19T08:31:45.526Z,72.08
2019-05-19T08:34:13.968Z,71.60
2019-05-19T08:36:42.405Z,71.01
2019-05-19T08:39:10.980Z,70.68
2019-05-19T08:41:39.421Z,70.36
2019-05-19T08:44:07.873Z,69.66
2019-05-19T08:46:36.322Z,70.71
2019-05-19T08:49:04.806Z,69.19
2019-05-19T08:51:33.447Z,68.53
2019-05-19T08:54:13.891Z,68.07
2019-05-19T08:56:32.034Z,68.47
2019-05-19T08:59:00.608Z,67.89
2019-05-19T09:01:29.032Z,68.62
2019-05-19T09:03:57.572Z,66.80
2019-05-19T09:06:26.057Z,66.49
2019-05-19T09:08:54.501Z,66.49
2019-05-19T09:11:22.915Z,67.73
2019-05-19T09:13:51.334Z,67.67
2019-05-19T09:16:19.776Z,67.07
2019-05-19T09:18:50.693Z,66.24
2019-05-19T09:21:19.115Z,67.28
2019-05-19T09:23:47.545Z,66.73
2019-05-19T09:26:15.984Z,66.92
2019-05-19T09:28:44.451Z,66.78
2019-05-19T09:31:12.882Z,66.76
2019-05-19T09:33:41.355Z,65.80
2019-05-19T09:36:10.841Z,64.95
2019-05-19T09:38:39.290Z,64.87
2019-05-19T09:41:07.742Z,64.56
2019-05-19T09:43:36.145Z,62.95
2019-05-19T09:46:05.703Z,63.29
2019-05-19T09:48:34.267Z,62.14
2019-05-19T09:51:02.683Z,62.12
2019-05-19T09:53:31.227Z,63.73
2019-05-19T09:55:59.720Z,61.76
2019-05-19T09:58:28.240Z,62.14
2019-05-19T10:00:56.679Z,59.84
2019-05-19T10:03:25.125Z,63.47
2019-05-19T10:05:53.501Z,62.30
2019-05-19T10:08:28.296Z,62.34
2019-05-19T10:11:29.336Z,62.38
2019-05-19T10:14:00.667Z,58.40
2019-05-19T10:16:29.176Z,59.04
2019-05-19T10:18:57.603Z,59.71
2019-05-19T10:21:28.826Z,60.26
2019-05-19T10:23:57.269Z,62.49
2019-05-19T10:26:25.665Z,59.25
2019-05-19T10:28:54.112Z,60.21
2019-05-19T10:31:22.517Z,60.91
2019-05-19T10:33:51.000Z,60.96
2019-05-19T10:36:19.419Z,60.29
2019-05-19T10:38:57.776Z,57.79
2019-05-19T10:41:26.144Z,61.05
2019-05-19T10:44:00.965Z,58.93
2019-05-19T10:46:30.237Z,57.27
2019-05-19T10:48:58.740Z,59.81
2019-05-19T10:51:27.173Z,59.37
2019-05-19T10:53:55.582Z,59.21
2019-05-19T10:56:24.004Z,58.78
2019-05-19T10:58:52.460Z,58.54
2019-05-19T11:01:23.618Z,59.40
2019-05-19T11:03:52.016Z,57.03
2019-05-19T11:06:20.445Z,57.11
2019-05-19T11:08:48.857Z,60.51
2019-05-19T11:11:17.275Z,60.73
2019-05-19T11:13:45.693Z,59.87
2019-05-19T11:16:16.599Z,60.49
2019-05-19T11:18:45.017Z,58.83
2019-05-19T11:21:13.432Z,56.68
2019-05-19T11:23:41.859Z,56.80
2019-05-19T11:26:13.878Z,59.16
2019-05-19T11:28:43.269Z,56.35
2019-05-19T11:31:11.742Z,57.40
2019-05-19T11:33:40.176Z,55.25
2019-05-19T11:36:08.563Z,54.94
2019-05-19T11:38:37.162Z,55.44
2019-05-19T11:41:05.787Z,55.15
2019-05-19T11:43:34.195Z,55.97
2019-05-19T11:46:02.631Z,53.91
2019-05-19T11:48:32.149Z,57.11
2019-05-19T11:51:00.559Z,56.69
2019-05-19T11:53:28.995Z,55.52
2019-05-19T11:56:06.191Z,54.95
2019-05-19T11:58:27.551Z,56.42
2019-05-19T12:00:58.471Z,56.19
2019-05-19T12:03:26.901Z,56.19
2019-05-19T12:05:56.435Z,54.08
2019-05-19T12:08:26.219Z,53.82
2019-05-19T12:10:56.069Z,53.38
2019-05-19T12:13:24.543Z,55.38
2019-05-19T12:15:56.588Z,56.60
2019-05-19T12:18:25.044Z,55.20
2019-05-19T12:20:53.462Z,55.83
2019-05-19T12:23:25.735Z,54.09
2019-05-19T12:25:55.232Z,53.91
2019-05-19T12:28:27.403Z,54.75
2019-05-19T12:30:55.844Z,55.41
2019-05-19T12:33:26.674Z,52.58
2019-05-19T12:35:55.109Z,53.83
2019-05-19T12:38:24.172Z,54.66
2019-05-19T12:40:52.746Z,53.16
2019-05-19T12:43:23.840Z,53.09
2019-05-19T12:45:52.311Z,54.98
2019-05-19T12:48:20.744Z,52.94
2019-05-19T12:50:49.160Z,55.85
2019-05-19T12:53:17.588Z,54.80
2019-05-19T12:55:46.014Z,53.45
2019-05-19T12:58:14.495Z,54.47
2019-05-19T13:00:43.012Z,54.27
2019-05-19T13:03:11.421Z,54.12
2019-05-19T13:05:39.865Z,54.50
2019-05-19T13:08:11.361Z,56.70
2019-05-19T13:10:38.461Z,55.94
2019-05-19T13:13:10.090Z,56.05
2019-05-19T13:15:42.373Z,54.81
2019-05-19T13:18:17.919Z,56.32
2019-05-19T13:20:46.493Z,56.95
2019-05-19T13:23:15.903Z,57.58
2019-05-19T13:25:50.982Z,55.96
2019-05-19T13:28:19.604Z,57.68
2019-05-19T13:30:49.168Z,54.73
2019-05-19T13:33:17.608Z,54.78
2019-05-19T13:35:46.128Z,54.87
2019-05-19T13:38:17.145Z,57.10
2019-05-19T13:40:47.554Z,56.23
2019-05-19T13:43:17.167Z,54.77
2019-05-19T13:45:45.616Z,54.87
2019-05-19T13:48:18.260Z,54.88
2019-05-19T13:50:47.460Z,53.47
2019-05-19T13:53:15.938Z,54.18
2019-05-19T13:55:47.319Z,53.65
2019-05-19T13:58:16.188Z,54.14
2019-05-19T14:00:44.995Z,52.55
2019-05-19T14:03:13.580Z,53.35
2019-05-19T14:05:42.019Z,54.99
2019-05-19T14:08:11.593Z,55.64
2019-05-19T14:10:43.863Z,56.68
2019-05-19T14:13:11.806Z,56.88
2019-05-19T14:15:42.361Z,56.69
2019-05-19T14:18:11.695Z,54.99
2019-05-19T14:20:42.700Z,53.49
2019-05-19T14:23:11.324Z,54.56
2019-05-19T14:25:39.754Z,56.29
2019-05-19T14:28:08.163Z,54.97
2019-05-19T14:30:36.989Z,55.04
2019-05-19T14:33:05.404Z,55.48
2019-05-19T14:35:33.843Z,55.60
2019-05-19T14:38:02.626Z,55.85
2019-05-19T14:40:33.453Z,56.30
2019-05-19T14:43:04.566Z,56.25
2019-05-19T14:45:34.091Z,56.40
2019-05-19T14:48:02.560Z,57.90
2019-05-19T14:50:33.502Z,56.53
2019-05-19T14:53:02.284Z,57.73
2019-05-19T14:55:30.994Z,56.96
2019-05-19T14:57:59.474Z,57.15
2019-05-19T15:00:28.369Z,55.59
2019-05-19T15:02:58.986Z,57.10
2019-05-19T15:05:27.505Z,56.79
2019-05-19T15:07:56.350Z,55.90
2019-05-19T15:10:28.010Z,56.41
2019-05-19T15:12:58.523Z,57.82
2019-05-19T15:15:29.444Z,57.18
2019-05-19T15:17:57.874Z,58.06
2019-05-19T15:20:26.589Z,58.75
2019-05-19T15:22:55.347Z,59.13
2019-05-19T15:25:26.923Z,58.43
2019-05-19T15:28:01.548Z,58.48
2019-05-19T15:30:29.602Z,58.94
2019-05-19T15:33:13.242Z,57.02
2019-05-19T15:35:40.345Z,56.52
2019-05-19T15:38:08.978Z,58.12
2019-05-19T15:40:37.409Z,58.66
2019-05-19T15:43:05.889Z,56.97
2019-05-19T15:45:35.301Z,56.90
2019-05-19T15:48:05.136Z,56.21
2019-05-19T15:50:36.247Z,56.05
2019-05-19T15:53:04.686Z,56.40
2019-05-19T15:55:44.409Z,56.27
2019-05-19T15:58:16.378Z,55.70
2019-05-19T16:00:46.959Z,55.59
2019-05-19T16:03:16.653Z,56.14
2019-05-19T16:05:45.030Z,56.63
2019-05-19T16:08:15.970Z,56.97
2019-05-19T16:10:46.934Z,57.32
2019-05-19T16:13:21.826Z,58.25
2019-05-19T16:15:51.481Z,58.56
2019-05-19T16:18:19.893Z,58.91
2019-05-19T16:20:49.659Z,58.48
2019-05-19T16:23:18.351Z,58.70
2019-05-19T16:25:47.105Z,58.16
2019-05-19T16:28:30.653Z,59.49
2019-05-19T16:30:58.052Z,57.87
2019-05-19T16:33:28.014Z,58.18
2019-05-19T16:36:03.554Z,58.83
2019-05-19T16:38:31.993Z,59.30
2019-05-19T16:41:00.404Z,59.29
2019-05-19T16:43:28.850Z,59.54
2019-05-19T16:45:57.281Z,59.56
2019-05-19T16:48:30.889Z,59.59
2019-05-19T16:51:00.293Z,60.36
2019-05-19T16:53:33.508Z,60.77
2019-05-19T16:56:03.838Z,60.26
2019-05-19T16:58:45.225Z,61.81
2019-05-19T17:01:19.944Z,62.18
2019-05-19T17:03:50.810Z,62.51
2019-05-19T17:06:19.231Z,62.22
2019-05-19T17:08:47.674Z,62.86
2019-05-19T17:11:18.619Z,64.04
2019-05-19T17:13:53.915Z,63.85
2019-05-19T17:16:23.475Z,64.87
2019-05-19T17:18:54.445Z,64.58
2019-05-19T17:21:24.021Z,65.75
2019-05-19T17:23:52.434Z,65.85
2019-05-19T17:26:36.665Z,67.12
2019-05-19T17:29:05.076Z,66.76
2019-05-19T17:31:38.343Z,67.56
2019-05-19T17:34:06.769Z,67.72
2019-05-19T17:36:35.195Z,69.06
2019-05-19T17:39:05.396Z,68.50
2019-05-19T17:41:36.374Z,68.51
2019-05-19T17:44:04.790Z,68.38
2019-05-19T17:46:38.136Z,69.44
2019-05-19T17:49:06.673Z,69.88
2019-05-19T17:51:35.084Z,70.47
2019-05-19T17:54:06.765Z,70.39
2019-05-19T17:56:36.101Z,71.65
2019-05-19T17:59:16.076Z,71.46
2019-05-19T18:01:34.840Z,71.95
2019-05-19T18:04:03.273Z,71.90
2019-05-19T18:06:32.742Z,71.55
2019-05-19T18:09:01.181Z,72.50
2019-05-19T18:11:29.624Z,72.71
2019-05-19T18:14:02.238Z,72.43
2019-05-19T18:16:30.639Z,73.14
2019-05-19T18:19:02.852Z,73.18
2019-05-19T18:21:31.283Z,73.75
2019-05-19T18:23:59.695Z,73.11
2019-05-19T18:26:31.103Z,73.35
2019-05-19T18:28:59.516Z,74.35
2019-05-19T18:31:31.131Z,74.46
2019-05-19T18:33:59.631Z,75.13
2019-05-19T18:36:28.896Z,74.76
2019-05-19T18:39:01.207Z,75.15
2019-05-19T18:41:32.848Z,74.96
2019-05-19T18:44:05.327Z,75.53
2019-05-19T18:46:33.795Z,75.33
2019-05-19T18:49:05.807Z,75.36
2019-05-19T18:51:34.223Z,75.98
2019-05-19T18:54:02.712Z,75.53
2019-05-19T18:56:31.135Z,75.54
2019-05-19T18:59:00.889Z,75.84
2019-05-19T19:01:29.333Z,75.23
2019-05-19T19:04:05.094Z,75.70
2019-05-19T19:06:34.018Z,75.58
2019-05-19T19:09:03.058Z,75.64
2019-05-19T19:11:31.481Z,75.69
2019-05-19T19:14:00.396Z,76.16
2019-05-19T19:16:31.261Z,76.25
2019-05-19T19:19:00.879Z,75.78
2019-05-19T19:21:29.306Z,76.14
2019-05-19T19:23:57.718Z,76.02
2019-05-19T19:26:26.158Z,76.00
2019-05-19T19:28:58.529Z,76.85
2019-05-19T19:31:26.198Z,76.91
2019-05-19T19:33:58.764Z,77.35
2019-05-19T19:36:28.229Z,77.16
2019-05-19T19:38:57.709Z,76.97
2019-05-19T19:41:30.525Z,76.82
2019-05-19T19:43:58.982Z,76.90
2019-05-19T19:46:29.053Z,77.00
2019-05-19T19:49:00.946Z,77.09
2019-05-19T19:51:29.358Z,76.77
2019-05-19T19:53:57.810Z,76.46
2019-05-19T19:56:30.781Z,76.34
2019-05-19T19:59:01.012Z,76.83
2019-05-19T20:01:29.418Z,77.07
2019-05-19T20:03:58.913Z,77.22
2019-05-19T20:06:29.932Z,77.23
2019-05-19T20:09:05.948Z,77.95
2019-05-19T20:11:35.359Z,78.21
2019-05-19T20:14:03.782Z,77.68
2019-05-19T20:16:33.364Z,77.69
2019-05-19T20:19:01.775Z,77.19
2019-05-19T20:21:31.250Z,77.56
2019-05-19T20:24:02.334Z,77.56
2019-05-19T20:26:31.735Z,76.98
2019-05-19T20:29:03.961Z,77.49
2019-05-19T20:31:34.368Z,77.91
2019-05-19T20:34:02.845Z,78.23
2019-05-19T20:36:34.838Z,78.10
2019-05-19T20:39:04.895Z,77.56
2019-05-19T20:41:33.346Z,77.48
2019-05-19T20:44:09.778Z,77.20
2019-05-19T20:46:38.180Z,77.56
2019-05-19T20:49:06.633Z,77.39
2019-05-19T20:51:35.092Z,77.61
2019-05-19T20:54:03.491Z,78.03
2019-05-19T20:56:32.884Z,78.54
2019-05-19T20:59:01.293Z,78.33
2019-05-19T21:01:48.632Z,78.37
2019-05-19T21:04:20.593Z,78.46
2019-05-19T21:06:52.685Z,79.09
2019-05-19T21:09:21.082Z,79.08
2019-05-19T21:11:49.959Z,78.59
2019-05-19T21:14:20.291Z,78.58
2019-05-19T21:16:49.795Z,78.54
2019-05-19T21:19:22.073Z,78.48
2019-05-19T21:21:51.842Z,78.76
2019-05-19T21:27:23.633Z,78.86
2019-05-19T21:30:14.219Z,78.99
2019-05-19T21:32:44.631Z,79.64
2019-05-19T21:35:13.078Z,80.03
2019-05-19T21:37:48.718Z,79.66
2019-05-19T21:40:17.566Z,79.41
2019-05-19T21:42:52.443Z,80.01
2019-05-19T21:45:27.210Z,80.79
2019-05-19T21:47:55.629Z,80.66
2019-05-19T21:50:25.069Z,80.63
2019-05-19T21:52:53.511Z,80.10
2019-05-19T21:55:21.932Z,80.36
2019-05-19T21:57:52.914Z,80.50
2019-05-19T22:00:24.558Z,79.82
2019-05-19T22:02:53.021Z,80.39
2019-05-19T22:05:21.603Z,80.85
2019-05-19T22:07:57.773Z,80.85
2019-05-19T22:10:26.242Z,81.19
2019-05-19T22:12:57.175Z,81.03
2019-05-19T22:15:28.031Z,81.16
2019-05-19T22:17:59.082Z,81.30
2019-05-19T22:20:27.537Z,81.41
2019-05-19T22:22:55.948Z,81.41
2019-05-19T22:25:29.812Z,81.88
2019-05-19T22:27:59.266Z,81.94
2019-05-19T22:30:27.687Z,81.84
2019-05-19T22:32:58.645Z,81.43
2019-05-19T22:35:27.961Z,81.33
2019-05-19T22:38:03.198Z,81.62
2019-05-19T22:40:33.652Z,81.58
2019-05-19T22:43:11.166Z,81.85
2019-05-19T22:45:42.252Z,82.23
2019-05-19T22:48:12.753Z,82.02
2019-05-19T22:50:43.282Z,82.11
2019-05-19T22:53:14.933Z,82.23
2019-05-19T22:55:49.551Z,82.83
2019-05-19T22:58:17.932Z,82.54
2019-05-19T23:00:46.323Z,82.49
2019-05-19T23:03:14.757Z,82.35
2019-05-19T23:05:43.166Z,82.16
2019-05-19T23:08:11.581Z,82.16
2019-05-19T23:10:40.040Z,81.83
2019-05-19T23:13:11.198Z,81.98
2019-05-19T23:15:43.568Z,81.82
2019-05-19T23:18:14.400Z,82.06
2019-05-19T23:20:42.809Z,82.12
2019-05-19T23:23:11.267Z,81.79
2019-05-19T23:25:42.221Z,82.18
2019-05-19T23:28:11.646Z,82.17
2019-05-19T23:30:40.068Z,82.14
2019-05-19T23:33:08.505Z,81.80
2019-05-19T23:35:36.926Z,81.61
2019-05-19T23:38:05.344Z,81.72
2019-05-19T23:40:33.766Z,81.92
2019-05-19T23:43:05.144Z,81.81
2019-05-19T23:45:36.293Z,81.85
2019-05-19T23:48:08.484Z,82.33
2019-05-19T23:50:37.146Z,82.38
2019-05-19T23:53:08.226Z,82.31
2019-05-19T23:55:37.701Z,82.02
2019-05-19T23:58:06.140Z,82.16
